sensor_id;sensor_type;location;lat;lon;timestamp;P1;durP1;ratioP1;P2;durP2;ratioP2
20609;SDS011;10463;52.378;9.688;2023-04-25T00:00:59;3.87;;;2.33;;
20609;SDS011;10463;52.378;9.688;2023-04-25T00:03:46;2.90;;;2.20;;
20609;SDS011;10463;52.378;9.688;2023-04-25T00:06:32;2.93;;;2.50;;
20609;SDS011;10463;52.378;9.688;2023-04-25T00:09:20;2.63;;;2.43;;
20609;SDS011;10463;52.378;9.688;2023-04-25T00:12:06;3.60;;;2.67;;
20609;SDS011;10463;52.378;9.688;2023-04-25T00:14:51;2.93;;;2.17;;
20609;SDS011;10463;52.378;9.688;2023-04-25T00:17:36;2.53;;;2.10;;
20609;SDS011;10463;52.378;9.688;2023-04-25T00:20:22;4.13;;;2.40;;
20609;SDS011;10463;52.378;9.688;2023-04-25T00:23:10;2.73;;;2.03;;
20609;SDS011;10463;52.378;9.688;2023-04-25T00:25:54;3.67;;;2.77;;
20609;SDS011;10463;52.378;9.688;2023-04-25T00:28:39;3.10;;;2.50;;
20609;SDS011;10463;52.378;9.688;2023-04-25T00:31:24;2.70;;;2.33;;
20609;SDS011;10463;52.378;9.688;2023-04-25T00:34:09;2.37;;;1.90;;
20609;SDS011;10463;52.378;9.688;2023-04-25T00:36:55;2.80;;;2.07;;
20609;SDS011;10463;52.378;9.688;2023-04-25T00:39:41;4.10;;;2.10;;
20609;SDS011;10463;52.378;9.688;2023-04-25T00:42:27;2.43;;;2.00;;
20609;SDS011;10463;52.378;9.688;2023-04-25T00:45:14;3.83;;;2.40;;
20609;SDS011;10463;52.378;9.688;2023-04-25T00:48:01;2.60;;;1.67;;
20609;SDS011;10463;52.378;9.688;2023-04-25T00:50:51;2.67;;;2.00;;
20609;SDS011;10463;52.378;9.688;2023-04-25T00:53:38;3.07;;;2.10;;
20609;SDS011;10463;52.378;9.688;2023-04-25T00:56:25;2.43;;;2.03;;
20609;SDS011;10463;52.378;9.688;2023-04-25T00:59:10;2.23;;;1.77;;
20609;SDS011;10463;52.378;9.688;2023-04-25T01:01:57;2.43;;;1.87;;
20609;SDS011;10463;52.378;9.688;2023-04-25T01:04:42;2.23;;;1.73;;
20609;SDS011;10463;52.378;9.688;2023-04-25T01:07:28;2.50;;;1.90;;
20609;SDS011;10463;52.378;9.688;2023-04-25T01:10:15;2.47;;;1.77;;
20609;SDS011;10463;52.378;9.688;2023-04-25T01:13:00;2.40;;;1.70;;
20609;SDS011;10463;52.378;9.688;2023-04-25T01:15:45;2.63;;;1.93;;
20609;SDS011;10463;52.378;9.688;2023-04-25T01:18:30;2.30;;;1.80;;
20609;SDS011;10463;52.378;9.688;2023-04-25T01:21:16;2.40;;;1.80;;
20609;SDS011;10463;52.378;9.688;2023-04-25T01:24:03;2.70;;;2.10;;
20609;SDS011;10463;52.378;9.688;2023-04-25T01:26:48;2.60;;;1.93;;
20609;SDS011;10463;52.378;9.688;2023-04-25T01:29:36;2.70;;;2.00;;
20609;SDS011;10463;52.378;9.688;2023-04-25T01:32:21;2.20;;;1.50;;
20609;SDS011;10463;52.378;9.688;2023-04-25T01:35:10;2.17;;;1.67;;
20609;SDS011;10463;52.378;9.688;2023-04-25T01:37:57;2.47;;;1.73;;
20609;SDS011;10463;52.378;9.688;2023-04-25T01:40:42;2.57;;;1.63;;
20609;SDS011;10463;52.378;9.688;2023-04-25T01:43:30;2.23;;;1.67;;
20609;SDS011;10463;52.378;9.688;2023-04-25T01:46:15;2.43;;;1.60;;
20609;SDS011;10463;52.378;9.688;2023-04-25T01:49:02;2.03;;;1.80;;
20609;SDS011;10463;52.378;9.688;2023-04-25T01:51:47;2.07;;;1.50;;
20609;SDS011;10463;52.378;9.688;2023-04-25T01:54:34;1.90;;;1.50;;
20609;SDS011;10463;52.378;9.688;2023-04-25T01:57:19;2.37;;;1.60;;
20609;SDS011;10463;52.378;9.688;2023-04-25T02:00:06;1.90;;;1.50;;
20609;SDS011;10463;52.378;9.688;2023-04-25T02:02:59;2.03;;;1.50;;
20609;SDS011;10463;52.378;9.688;2023-04-25T02:05:48;2.27;;;1.50;;
20609;SDS011;10463;52.378;9.688;2023-04-25T02:11:22;2.27;;;1.57;;
20609;SDS011;10463;52.378;9.688;2023-04-25T02:14:28;2.30;;;1.73;;
20609;SDS011;10463;52.378;9.688;2023-04-25T02:17:35;2.70;;;1.70;;
20609;SDS011;10463;52.378;9.688;2023-04-25T02:20:21;2.20;;;1.63;;
20609;SDS011;10463;52.378;9.688;2023-04-25T02:23:06;3.37;;;1.57;;
20609;SDS011;10463;52.378;9.688;2023-04-25T02:25:51;1.93;;;1.30;;
20609;SDS011;10463;52.378;9.688;2023-04-25T02:28:39;2.50;;;1.73;;
20609;SDS011;10463;52.378;9.688;2023-04-25T02:31:24;2.00;;;1.60;;
20609;SDS011;10463;52.378;9.688;2023-04-25T02:34:09;2.30;;;1.50;;
20609;SDS011;10463;52.378;9.688;2023-04-25T02:36:55;1.90;;;1.30;;
20609;SDS011;10463;52.378;9.688;2023-04-25T02:39:40;2.00;;;1.50;;
20609;SDS011;10463;52.378;9.688;2023-04-25T02:42:25;2.10;;;1.33;;
20609;SDS011;10463;52.378;9.688;2023-04-25T02:45:11;2.17;;;1.50;;
20609;SDS011;10463;52.378;9.688;2023-04-25T02:47:56;1.83;;;1.27;;
20609;SDS011;10463;52.378;9.688;2023-04-25T02:50:41;2.13;;;1.30;;
20609;SDS011;10463;52.378;9.688;2023-04-25T02:53:26;2.47;;;1.50;;
20609;SDS011;10463;52.378;9.688;2023-04-25T02:56:12;2.27;;;1.77;;
20609;SDS011;10463;52.378;9.688;2023-04-25T02:58:56;2.20;;;1.70;;
20609;SDS011;10463;52.378;9.688;2023-04-25T03:01:42;1.90;;;1.47;;
20609;SDS011;10463;52.378;9.688;2023-04-25T03:04:27;2.33;;;1.57;;
20609;SDS011;10463;52.378;9.688;2023-04-25T03:07:13;2.17;;;1.60;;
20609;SDS011;10463;52.378;9.688;2023-04-25T03:09:58;1.90;;;1.30;;
20609;SDS011;10463;52.378;9.688;2023-04-25T03:12:43;2.00;;;1.53;;
20609;SDS011;10463;52.378;9.688;2023-04-25T03:15:28;2.17;;;1.40;;
20609;SDS011;10463;52.378;9.688;2023-04-25T03:18:14;2.70;;;1.23;;
20609;SDS011;10463;52.378;9.688;2023-04-25T03:20:59;2.27;;;1.40;;
20609;SDS011;10463;52.378;9.688;2023-04-25T03:23:44;2.23;;;1.60;;
20609;SDS011;10463;52.378;9.688;2023-04-25T03:26:30;2.03;;;1.47;;
20609;SDS011;10463;52.378;9.688;2023-04-25T03:29:15;1.70;;;1.30;;
20609;SDS011;10463;52.378;9.688;2023-04-25T03:32:01;2.60;;;1.30;;
20609;SDS011;10463;52.378;9.688;2023-04-25T03:34:47;2.03;;;1.37;;
20609;SDS011;10463;52.378;9.688;2023-04-25T03:37:32;2.13;;;1.60;;
20609;SDS011;10463;52.378;9.688;2023-04-25T03:40:17;1.70;;;1.10;;
20609;SDS011;10463;52.378;9.688;2023-04-25T03:43:34;2.30;;;1.30;;
20609;SDS011;10463;52.378;9.688;2023-04-25T03:46:23;1.90;;;1.20;;
20609;SDS011;10463;52.378;9.688;2023-04-25T03:49:08;1.70;;;1.23;;
20609;SDS011;10463;52.378;9.688;2023-04-25T03:52:17;1.70;;;1.10;;
20609;SDS011;10463;52.378;9.688;2023-04-25T03:55:03;2.20;;;1.30;;
20609;SDS011;10463;52.378;9.688;2023-04-25T03:57:49;1.70;;;1.20;;
20609;SDS011;10463;52.378;9.688;2023-04-25T04:00:34;2.10;;;1.10;;
20609;SDS011;10463;52.378;9.688;2023-04-25T04:03:19;1.67;;;1.00;;
20609;SDS011;10463;52.378;9.688;2023-04-25T04:06:05;2.47;;;1.03;;
20609;SDS011;10463;52.378;9.688;2023-04-25T04:08:56;1.90;;;1.30;;
20609;SDS011;10463;52.378;9.688;2023-04-25T04:11:41;2.00;;;1.27;;
20609;SDS011;10463;52.378;9.688;2023-04-25T04:14:28;1.70;;;1.27;;
20609;SDS011;10463;52.378;9.688;2023-04-25T04:17:13;1.87;;;1.17;;
20609;SDS011;10463;52.378;9.688;2023-04-25T04:19:58;1.60;;;0.97;;
20609;SDS011;10463;52.378;9.688;2023-04-25T04:22:43;1.83;;;1.07;;
20609;SDS011;10463;52.378;9.688;2023-04-25T04:25:32;1.80;;;1.13;;
20609;SDS011;10463;52.378;9.688;2023-04-25T04:28:22;2.07;;;1.13;;
20609;SDS011;10463;52.378;9.688;2023-04-25T04:31:13;1.73;;;1.03;;
20609;SDS011;10463;52.378;9.688;2023-04-25T04:34:01;1.80;;;1.03;;
20609;SDS011;10463;52.378;9.688;2023-04-25T04:36:47;1.80;;;1.20;;
20609;SDS011;10463;52.378;9.688;2023-04-25T04:39:32;2.20;;;1.03;;
20609;SDS011;10463;52.378;9.688;2023-04-25T04:42:27;1.97;;;1.43;;
20609;SDS011;10463;52.378;9.688;2023-04-25T04:45:21;2.10;;;1.30;;
20609;SDS011;10463;52.378;9.688;2023-04-25T04:48:24;1.83;;;1.00;;
20609;SDS011;10463;52.378;9.688;2023-04-25T04:51:27;2.73;;;1.57;;
20609;SDS011;10463;52.378;9.688;2023-04-25T04:54:12;2.07;;;1.10;;
20609;SDS011;10463;52.378;9.688;2023-04-25T04:57:18;2.60;;;1.13;;
20609;SDS011;10463;52.378;9.688;2023-04-25T05:03:04;1.90;;;1.07;;
20609;SDS011;10463;52.378;9.688;2023-04-25T05:06:12;1.60;;;1.17;;
20609;SDS011;10463;52.378;9.688;2023-04-25T05:09:26;2.20;;;1.23;;
20609;SDS011;10463;52.378;9.688;2023-04-25T05:12:37;2.10;;;1.70;;
20609;SDS011;10463;52.378;9.688;2023-04-25T05:15:40;1.97;;;1.20;;
20609;SDS011;10463;52.378;9.688;2023-04-25T05:18:41;2.00;;;1.37;;
20609;SDS011;10463;52.378;9.688;2023-04-25T05:21:50;2.00;;;1.40;;
20609;SDS011;10463;52.378;9.688;2023-04-25T05:24:55;1.60;;;1.10;;
20609;SDS011;10463;52.378;9.688;2023-04-25T05:28:00;2.00;;;1.20;;
20609;SDS011;10463;52.378;9.688;2023-04-25T05:31:09;2.30;;;1.50;;
20609;SDS011;10463;52.378;9.688;2023-04-25T05:34:08;2.43;;;1.60;;
20609;SDS011;10463;52.378;9.688;2023-04-25T05:37:16;1.90;;;1.20;;
20609;SDS011;10463;52.378;9.688;2023-04-25T05:40:11;1.70;;;1.17;;
20609;SDS011;10463;52.378;9.688;2023-04-25T05:43:02;1.90;;;1.10;;
20609;SDS011;10463;52.378;9.688;2023-04-25T05:46:02;2.40;;;1.80;;
20609;SDS011;10463;52.378;9.688;2023-04-25T05:48:54;1.90;;;1.20;;
20609;SDS011;10463;52.378;9.688;2023-04-25T05:51:55;2.20;;;1.50;;
20609;SDS011;10463;52.378;9.688;2023-04-25T05:54:52;2.50;;;1.90;;
20609;SDS011;10463;52.378;9.688;2023-04-25T05:57:37;2.20;;;1.70;;
20609;SDS011;10463;52.378;9.688;2023-04-25T06:00:26;2.50;;;1.70;;
20609;SDS011;10463;52.378;9.688;2023-04-25T06:03:11;2.50;;;1.97;;
20609;SDS011;10463;52.378;9.688;2023-04-25T06:05:58;2.90;;;2.00;;
20609;SDS011;10463;52.378;9.688;2023-04-25T06:08:45;3.20;;;1.83;;
20609;SDS011;10463;52.378;9.688;2023-04-25T06:11:30;2.80;;;2.00;;
20609;SDS011;10463;52.378;9.688;2023-04-25T06:14:16;2.83;;;2.00;;
20609;SDS011;10463;52.378;9.688;2023-04-25T06:17:05;3.07;;;1.90;;
20609;SDS011;10463;52.378;9.688;2023-04-25T06:19:52;2.20;;;1.80;;
20609;SDS011;10463;52.378;9.688;2023-04-25T06:22:37;3.13;;;2.20;;
20609;SDS011;10463;52.378;9.688;2023-04-25T06:25:23;3.17;;;2.43;;
20609;SDS011;10463;52.378;9.688;2023-04-25T06:28:08;3.27;;;2.30;;
20609;SDS011;10463;52.378;9.688;2023-04-25T06:30:54;2.70;;;2.13;;
20609;SDS011;10463;52.378;9.688;2023-04-25T06:33:39;4.40;;;3.00;;
20609;SDS011;10463;52.378;9.688;2023-04-25T06:36:23;3.97;;;2.80;;
20609;SDS011;10463;52.378;9.688;2023-04-25T06:39:12;3.40;;;2.47;;
20609;SDS011;10463;52.378;9.688;2023-04-25T06:41:57;3.97;;;2.70;;
20609;SDS011;10463;52.378;9.688;2023-04-25T06:45:04;4.00;;;2.70;;
20609;SDS011;10463;52.378;9.688;2023-04-25T06:47:50;3.67;;;2.50;;
20609;SDS011;10463;52.378;9.688;2023-04-25T06:50:35;3.90;;;2.80;;
20609;SDS011;10463;52.378;9.688;2023-04-25T06:53:20;3.33;;;2.50;;
20609;SDS011;10463;52.378;9.688;2023-04-25T06:56:10;3.83;;;2.73;;
20609;SDS011;10463;52.378;9.688;2023-04-25T06:59:07;3.00;;;2.50;;
20609;SDS011;10463;52.378;9.688;2023-04-25T07:01:57;3.67;;;2.83;;
20609;SDS011;10463;52.378;9.688;2023-04-25T07:04:43;4.60;;;2.97;;
20609;SDS011;10463;52.378;9.688;2023-04-25T07:07:30;4.20;;;3.33;;
20609;SDS011;10463;52.378;9.688;2023-04-25T07:10:16;5.17;;;3.90;;
20609;SDS011;10463;52.378;9.688;2023-04-25T07:13:01;3.90;;;2.97;;
20609;SDS011;10463;52.378;9.688;2023-04-25T07:15:47;4.00;;;2.70;;
20609;SDS011;10463;52.378;9.688;2023-04-25T07:18:33;6.17;;;5.00;;
20609;SDS011;10463;52.378;9.688;2023-04-25T07:21:19;4.87;;;3.87;;
20609;SDS011;10463;52.378;9.688;2023-04-25T07:24:06;4.67;;;3.90;;
20609;SDS011;10463;52.378;9.688;2023-04-25T07:26:55;5.87;;;4.37;;
20609;SDS011;10463;52.378;9.688;2023-04-25T07:29:57;5.10;;;4.30;;
20609;SDS011;10463;52.378;9.688;2023-04-25T07:32:44;5.33;;;4.67;;
20609;SDS011;10463;52.378;9.688;2023-04-25T07:35:29;5.80;;;4.70;;
20609;SDS011;10463;52.378;9.688;2023-04-25T07:38:15;5.43;;;4.30;;
20609;SDS011;10463;52.378;9.688;2023-04-25T07:41:00;6.93;;;4.63;;
20609;SDS011;10463;52.378;9.688;2023-04-25T07:43:44;5.20;;;4.70;;
20609;SDS011;10463;52.378;9.688;2023-04-25T07:46:29;6.50;;;5.30;;
20609;SDS011;10463;52.378;9.688;2023-04-25T07:49:15;7.63;;;5.73;;
20609;SDS011;10463;52.378;9.688;2023-04-25T07:52:03;6.50;;;5.60;;
20609;SDS011;10463;52.378;9.688;2023-04-25T07:54:49;6.70;;;6.00;;
20609;SDS011;10463;52.378;9.688;2023-04-25T07:57:39;7.10;;;6.37;;
20609;SDS011;10463;52.378;9.688;2023-04-25T08:00:25;8.50;;;7.07;;
20609;SDS011;10463;52.378;9.688;2023-04-25T08:03:24;9.17;;;8.10;;
20609;SDS011;10463;52.378;9.688;2023-04-25T08:06:12;9.83;;;7.47;;
20609;SDS011;10463;52.378;9.688;2023-04-25T08:09:29;8.67;;;7.40;;
20609;SDS011;10463;52.378;9.688;2023-04-25T08:12:19;8.43;;;7.43;;
20609;SDS011;10463;52.378;9.688;2023-04-25T08:15:05;8.20;;;7.03;;
20609;SDS011;10463;52.378;9.688;2023-04-25T08:17:53;9.30;;;7.33;;
20609;SDS011;10463;52.378;9.688;2023-04-25T08:20:38;8.50;;;7.30;;
20609;SDS011;10463;52.378;9.688;2023-04-25T08:23:28;7.57;;;6.87;;
20609;SDS011;10463;52.378;9.688;2023-04-25T08:26:29;11.13;;;9.03;;
20609;SDS011;10463;52.378;9.688;2023-04-25T08:29:14;10.53;;;9.23;;
20609;SDS011;10463;52.378;9.688;2023-04-25T08:31:59;9.63;;;8.43;;
20609;SDS011;10463;52.378;9.688;2023-04-25T08:34:45;8.80;;;7.80;;
20609;SDS011;10463;52.378;9.688;2023-04-25T08:37:31;8.13;;;7.30;;
20609;SDS011;10463;52.378;9.688;2023-04-25T08:40:22;9.50;;;8.40;;
20609;SDS011;10463;52.378;9.688;2023-04-25T08:43:15;9.53;;;8.47;;
20609;SDS011;10463;52.378;9.688;2023-04-25T08:46:03;10.03;;;8.87;;
20609;SDS011;10463;52.378;9.688;2023-04-25T08:49:01;9.80;;;8.80;;
20609;SDS011;10463;52.378;9.688;2023-04-25T08:51:46;10.17;;;8.43;;
20609;SDS011;10463;52.378;9.688;2023-04-25T08:54:33;11.83;;;9.90;;
20609;SDS011;10463;52.378;9.688;2023-04-25T08:57:22;11.87;;;10.00;;
20609;SDS011;10463;52.378;9.688;2023-04-25T09:00:09;10.67;;;9.53;;
20609;SDS011;10463;52.378;9.688;2023-04-25T09:02:57;10.23;;;9.03;;
20609;SDS011;10463;52.378;9.688;2023-04-25T09:05:47;11.43;;;9.90;;
20609;SDS011;10463;52.378;9.688;2023-04-25T09:08:33;11.93;;;10.13;;
20609;SDS011;10463;52.378;9.688;2023-04-25T09:11:20;9.70;;;8.80;;
20609;SDS011;10463;52.378;9.688;2023-04-25T09:14:17;11.17;;;10.00;;
20609;SDS011;10463;52.378;9.688;2023-04-25T09:17:41;11.50;;;10.30;;
20609;SDS011;10463;52.378;9.688;2023-04-25T09:20:29;11.53;;;10.33;;
20609;SDS011;10463;52.378;9.688;2023-04-25T09:23:15;10.20;;;9.20;;
20609;SDS011;10463;52.378;9.688;2023-04-25T09:26:00;11.60;;;10.27;;
20609;SDS011;10463;52.378;9.688;2023-04-25T09:31:40;11.70;;;10.43;;
20609;SDS011;10463;52.378;9.688;2023-04-25T09:34:26;10.77;;;9.70;;
20609;SDS011;10463;52.378;9.688;2023-04-25T09:37:17;12.63;;;10.53;;
20609;SDS011;10463;52.378;9.688;2023-04-25T09:40:22;11.77;;;10.57;;
20609;SDS011;10463;52.378;9.688;2023-04-25T09:43:19;13.83;;;11.70;;
20609;SDS011;10463;52.378;9.688;2023-04-25T09:46:08;12.37;;;11.07;;
20609;SDS011;10463;52.378;9.688;2023-04-25T09:48:59;13.80;;;11.80;;
20609;SDS011;10463;52.378;9.688;2023-04-25T09:51:56;11.97;;;10.47;;
20609;SDS011;10463;52.378;9.688;2023-04-25T09:54:44;13.23;;;11.93;;
20609;SDS011;10463;52.378;9.688;2023-04-25T09:57:36;12.10;;;10.73;;
20609;SDS011;10463;52.378;9.688;2023-04-25T10:00:24;12.03;;;10.63;;
20609;SDS011;10463;52.378;9.688;2023-04-25T10:03:10;13.27;;;11.83;;
20609;SDS011;10463;52.378;9.688;2023-04-25T10:06:16;14.17;;;12.17;;
20609;SDS011;10463;52.378;9.688;2023-04-25T10:09:04;13.53;;;12.13;;
20609;SDS011;10463;52.378;9.688;2023-04-25T10:11:52;12.13;;;10.90;;
20609;SDS011;10463;52.378;9.688;2023-04-25T10:14:38;12.53;;;11.23;;
20609;SDS011;10463;52.378;9.688;2023-04-25T10:17:23;13.63;;;11.30;;
20609;SDS011;10463;52.378;9.688;2023-04-25T10:20:11;12.43;;;10.53;;
20609;SDS011;10463;52.378;9.688;2023-04-25T10:23:03;11.90;;;10.70;;
20609;SDS011;10463;52.378;9.688;2023-04-25T10:25:55;13.50;;;11.90;;
20609;SDS011;10463;52.378;9.688;2023-04-25T10:28:56;11.03;;;9.50;;
20609;SDS011;10463;52.378;9.688;2023-04-25T10:31:45;11.13;;;9.60;;
20609;SDS011;10463;52.378;9.688;2023-04-25T10:34:41;12.00;;;10.17;;
20609;SDS011;10463;52.378;9.688;2023-04-25T10:37:27;12.43;;;11.17;;
20609;SDS011;10463;52.378;9.688;2023-04-25T10:43:34;10.67;;;9.47;;
20609;SDS011;10463;52.378;9.688;2023-04-25T10:46:24;11.23;;;10.07;;
20609;SDS011;10463;52.378;9.688;2023-04-25T10:49:09;10.30;;;9.20;;
20609;SDS011;10463;52.378;9.688;2023-04-25T10:52:11;10.97;;;9.80;;
20609;SDS011;10463;52.378;9.688;2023-04-25T10:55:03;10.63;;;9.53;;
20609;SDS011;10463;52.378;9.688;2023-04-25T10:57:48;10.50;;;8.37;;
20609;SDS011;10463;52.378;9.688;2023-04-25T11:00:35;9.53;;;8.53;;
20609;SDS011;10463;52.378;9.688;2023-04-25T11:03:24;9.80;;;8.60;;
20609;SDS011;10463;52.378;9.688;2023-04-25T11:06:15;11.67;;;10.50;;
20609;SDS011;10463;52.378;9.688;2023-04-25T11:09:09;10.57;;;9.50;;
20609;SDS011;10463;52.378;9.688;2023-04-25T11:11:58;10.20;;;8.63;;
20609;SDS011;10463;52.378;9.688;2023-04-25T11:14:44;8.80;;;7.90;;
20609;SDS011;10463;52.378;9.688;2023-04-25T11:17:31;9.10;;;7.90;;
20609;SDS011;10463;52.378;9.688;2023-04-25T11:20:16;9.97;;;8.13;;
20609;SDS011;10463;52.378;9.688;2023-04-25T11:23:02;9.23;;;8.20;;
20609;SDS011;10463;52.378;9.688;2023-04-25T11:25:47;9.27;;;7.90;;
20609;SDS011;10463;52.378;9.688;2023-04-25T11:28:33;9.67;;;8.67;;
20609;SDS011;10463;52.378;9.688;2023-04-25T11:31:20;8.90;;;8.00;;
20609;SDS011;10463;52.378;9.688;2023-04-25T11:34:07;7.53;;;6.80;;
20609;SDS011;10463;52.378;9.688;2023-04-25T11:36:51;8.40;;;7.40;;
20609;SDS011;10463;52.378;9.688;2023-04-25T11:39:37;8.10;;;7.27;;
20609;SDS011;10463;52.378;9.688;2023-04-25T11:42:22;8.37;;;7.50;;
20609;SDS011;10463;52.378;9.688;2023-04-25T11:45:07;8.67;;;7.77;;
20609;SDS011;10463;52.378;9.688;2023-04-25T11:47:53;7.60;;;6.80;;
20609;SDS011;10463;52.378;9.688;2023-04-25T11:50:40;8.73;;;7.27;;
20609;SDS011;10463;52.378;9.688;2023-04-25T11:53:25;7.60;;;6.87;;
20609;SDS011;10463;52.378;9.688;2023-04-25T11:56:12;7.20;;;6.47;;
20609;SDS011;10463;52.378;9.688;2023-04-25T11:58:58;7.27;;;6.23;;
20609;SDS011;10463;52.378;9.688;2023-04-25T12:01:48;6.87;;;6.20;;
20609;SDS011;10463;52.378;9.688;2023-04-25T12:04:34;6.10;;;5.50;;
20609;SDS011;10463;52.378;9.688;2023-04-25T12:07:20;6.00;;;5.47;;
20609;SDS011;10463;52.378;9.688;2023-04-25T12:10:07;6.17;;;5.57;;
20609;SDS011;10463;52.378;9.688;2023-04-25T12:12:54;6.37;;;5.67;;
20609;SDS011;10463;52.378;9.688;2023-04-25T12:15:40;5.80;;;5.20;;
20609;SDS011;10463;52.378;9.688;2023-04-25T12:18:25;6.60;;;5.90;;
20609;SDS011;10463;52.378;9.688;2023-04-25T12:21:12;7.70;;;6.73;;
20609;SDS011;10463;52.378;9.688;2023-04-25T12:24:07;6.07;;;5.47;;
20609;SDS011;10463;52.378;9.688;2023-04-25T12:27:01;6.53;;;5.50;;
20609;SDS011;10463;52.378;9.688;2023-04-25T12:29:51;6.87;;;6.03;;
20609;SDS011;10463;52.378;9.688;2023-04-25T12:32:37;5.93;;;5.23;;
20609;SDS011;10463;52.378;9.688;2023-04-25T12:35:22;6.23;;;5.63;;
20609;SDS011;10463;52.378;9.688;2023-04-25T12:38:06;6.67;;;5.40;;
20609;SDS011;10463;52.378;9.688;2023-04-25T12:40:52;6.97;;;5.80;;
20609;SDS011;10463;52.378;9.688;2023-04-25T12:43:38;6.17;;;5.57;;
20609;SDS011;10463;52.378;9.688;2023-04-25T12:46:22;5.80;;;5.03;;
20609;SDS011;10463;52.378;9.688;2023-04-25T12:49:08;5.73;;;5.13;;
20609;SDS011;10463;52.378;9.688;2023-04-25T12:51:53;5.40;;;4.90;;
20609;SDS011;10463;52.378;9.688;2023-04-25T12:54:37;6.97;;;5.90;;
20609;SDS011;10463;52.378;9.688;2023-04-25T12:57:24;5.70;;;5.10;;
20609;SDS011;10463;52.378;9.688;2023-04-25T13:00:10;5.60;;;4.87;;
20609;SDS011;10463;52.378;9.688;2023-04-25T13:02:58;6.73;;;5.27;;
20609;SDS011;10463;52.378;9.688;2023-04-25T13:05:43;7.37;;;5.40;;
20609;SDS011;10463;52.378;9.688;2023-04-25T13:08:28;6.07;;;5.17;;
20609;SDS011;10463;52.378;9.688;2023-04-25T13:11:14;6.17;;;5.20;;
20609;SDS011;10463;52.378;9.688;2023-04-25T13:14:00;6.10;;;5.50;;
20609;SDS011;10463;52.378;9.688;2023-04-25T13:16:45;6.90;;;5.90;;
20609;SDS011;10463;52.378;9.688;2023-04-25T13:19:30;6.70;;;6.00;;
20609;SDS011;10463;52.378;9.688;2023-04-25T13:22:14;6.00;;;5.40;;
20609;SDS011;10463;52.378;9.688;2023-04-25T13:25:01;6.93;;;5.33;;
20609;SDS011;10463;52.378;9.688;2023-04-25T13:27:45;5.73;;;5.03;;
20609;SDS011;10463;52.378;9.688;2023-04-25T13:30:32;5.83;;;5.00;;
20609;SDS011;10463;52.378;9.688;2023-04-25T13:33:16;5.90;;;5.30;;
20609;SDS011;10463;52.378;9.688;2023-04-25T13:36:01;5.57;;;4.97;;
20609;SDS011;10463;52.378;9.688;2023-04-25T13:41:56;6.80;;;5.70;;
20609;SDS011;10463;52.378;9.688;2023-04-25T13:44:41;5.73;;;5.10;;
20609;SDS011;10463;52.378;9.688;2023-04-25T13:47:27;6.90;;;5.57;;
20609;SDS011;10463;52.378;9.688;2023-04-25T13:50:12;5.87;;;5.00;;
20609;SDS011;10463;52.378;9.688;2023-04-25T13:52:57;6.50;;;5.77;;
20609;SDS011;10463;52.378;9.688;2023-04-25T13:55:42;7.20;;;5.37;;
20609;SDS011;10463;52.378;9.688;2023-04-25T13:58:27;5.80;;;5.07;;
20609;SDS011;10463;52.378;9.688;2023-04-25T14:01:12;6.17;;;5.53;;
20609;SDS011;10463;52.378;9.688;2023-04-25T14:03:59;5.80;;;5.20;;
20609;SDS011;10463;52.378;9.688;2023-04-25T14:06:44;6.07;;;5.43;;
20609;SDS011;10463;52.378;9.688;2023-04-25T14:09:29;6.10;;;5.50;;
20609;SDS011;10463;52.378;9.688;2023-04-25T14:12:16;6.07;;;5.47;;
20609;SDS011;10463;52.378;9.688;2023-04-25T14:15:01;5.30;;;4.60;;
20609;SDS011;10463;52.378;9.688;2023-04-25T14:17:47;5.57;;;5.03;;
20609;SDS011;10463;52.378;9.688;2023-04-25T14:20:34;5.53;;;5.00;;
20609;SDS011;10463;52.378;9.688;2023-04-25T14:23:18;5.43;;;4.90;;
20609;SDS011;10463;52.378;9.688;2023-04-25T14:26:04;5.77;;;4.80;;
20609;SDS011;10463;52.378;9.688;2023-04-25T14:28:49;5.40;;;4.90;;
20609;SDS011;10463;52.378;9.688;2023-04-25T14:31:34;7.00;;;5.40;;
20609;SDS011;10463;52.378;9.688;2023-04-25T14:34:20;5.20;;;4.70;;
20609;SDS011;10463;52.378;9.688;2023-04-25T14:37:06;6.23;;;5.10;;
20609;SDS011;10463;52.378;9.688;2023-04-25T14:39:51;5.40;;;4.90;;
20609;SDS011;10463;52.378;9.688;2023-04-25T14:42:36;6.60;;;5.37;;
20609;SDS011;10463;52.378;9.688;2023-04-25T14:45:21;6.80;;;5.93;;
20609;SDS011;10463;52.378;9.688;2023-04-25T14:48:06;5.60;;;5.10;;
20609;SDS011;10463;52.378;9.688;2023-04-25T14:50:51;6.10;;;5.50;;
20609;SDS011;10463;52.378;9.688;2023-04-25T14:53:37;5.90;;;5.07;;
20609;SDS011;10463;52.378;9.688;2023-04-25T14:56:22;5.90;;;5.30;;
20609;SDS011;10463;52.378;9.688;2023-04-25T14:59:06;5.70;;;5.20;;
20609;SDS011;10463;52.378;9.688;2023-04-25T15:01:51;6.33;;;5.27;;
20609;SDS011;10463;52.378;9.688;2023-04-25T15:04:36;5.30;;;4.80;;
20609;SDS011;10463;52.378;9.688;2023-04-25T15:07:21;5.00;;;4.50;;
20609;SDS011;10463;52.378;9.688;2023-04-25T15:10:09;5.40;;;4.90;;
20609;SDS011;10463;52.378;9.688;2023-04-25T15:12:59;6.83;;;5.10;;
20609;SDS011;10463;52.378;9.688;2023-04-25T15:15:44;4.90;;;4.40;;
20609;SDS011;10463;52.378;9.688;2023-04-25T15:18:34;5.80;;;5.20;;
20609;SDS011;10463;52.378;9.688;2023-04-25T15:21:19;5.17;;;4.67;;
20609;SDS011;10463;52.378;9.688;2023-04-25T15:24:05;5.37;;;4.70;;
20609;SDS011;10463;52.378;9.688;2023-04-25T15:26:53;5.60;;;4.90;;
20609;SDS011;10463;52.378;9.688;2023-04-25T15:29:37;5.93;;;5.33;;
20609;SDS011;10463;52.378;9.688;2023-04-25T15:32:22;6.30;;;5.27;;
20609;SDS011;10463;52.378;9.688;2023-04-25T15:35:07;6.63;;;5.93;;
20609;SDS011;10463;52.378;9.688;2023-04-25T15:37:53;5.77;;;5.17;;
20609;SDS011;10463;52.378;9.688;2023-04-25T15:40:37;6.47;;;5.77;;
20609;SDS011;10463;52.378;9.688;2023-04-25T15:43:24;6.57;;;5.97;;
20609;SDS011;10463;52.378;9.688;2023-04-25T15:46:09;6.83;;;5.77;;
20609;SDS011;10463;52.378;9.688;2023-04-25T15:48:53;7.10;;;6.40;;
20609;SDS011;10463;52.378;9.688;2023-04-25T15:51:39;6.40;;;5.80;;
20609;SDS011;10463;52.378;9.688;2023-04-25T15:54:24;6.77;;;6.07;;
20609;SDS011;10463;52.378;9.688;2023-04-25T15:57:09;6.07;;;5.40;;
20609;SDS011;10463;52.378;9.688;2023-04-25T15:59:57;7.70;;;6.90;;
20609;SDS011;10463;52.378;9.688;2023-04-25T16:02:43;7.63;;;6.83;;
20609;SDS011;10463;52.378;9.688;2023-04-25T16:05:29;8.03;;;7.23;;
20609;SDS011;10463;52.378;9.688;2023-04-25T16:08:14;7.67;;;6.87;;
20609;SDS011;10463;52.378;9.688;2023-04-25T16:10:58;9.17;;;7.47;;
20609;SDS011;10463;52.378;9.688;2023-04-25T16:13:43;9.30;;;8.30;;
20609;SDS011;10463;52.378;9.688;2023-04-25T16:16:29;8.73;;;7.40;;
20609;SDS011;10463;52.378;9.688;2023-04-25T16:19:14;8.73;;;7.83;;
20609;SDS011;10463;52.378;9.688;2023-04-25T16:21:59;8.33;;;7.53;;
20609;SDS011;10463;52.378;9.688;2023-04-25T16:24:45;7.90;;;7.10;;
20609;SDS011;10463;52.378;9.688;2023-04-25T16:27:29;7.80;;;7.10;;
20609;SDS011;10463;52.378;9.688;2023-04-25T16:30:14;7.60;;;6.90;;
20609;SDS011;10463;52.378;9.688;2023-04-25T16:33:00;7.63;;;6.93;;
20609;SDS011;10463;52.378;9.688;2023-04-25T16:35:45;8.63;;;7.27;;
20609;SDS011;10463;52.378;9.688;2023-04-25T16:38:30;7.80;;;7.10;;
20609;SDS011;10463;52.378;9.688;2023-04-25T16:41:14;8.70;;;7.80;;
20609;SDS011;10463;52.378;9.688;2023-04-25T16:43:59;7.47;;;6.77;;
20609;SDS011;10463;52.378;9.688;2023-04-25T16:46:44;8.70;;;7.87;;
20609;SDS011;10463;52.378;9.688;2023-04-25T16:49:29;8.20;;;7.40;;
20609;SDS011;10463;52.378;9.688;2023-04-25T16:52:14;9.37;;;8.47;;
20609;SDS011;10463;52.378;9.688;2023-04-25T16:54:59;8.63;;;7.80;;
20609;SDS011;10463;52.378;9.688;2023-04-25T16:57:44;8.67;;;7.80;;
20609;SDS011;10463;52.378;9.688;2023-04-25T17:00:28;8.63;;;7.73;;
20609;SDS011;10463;52.378;9.688;2023-04-25T17:03:13;9.40;;;8.10;;
20609;SDS011;10463;52.378;9.688;2023-04-25T17:05:59;8.70;;;7.90;;